createdAt,value
2023-02-27T00:00:15.193Z,75.10
2023-02-27T00:03:05.838Z,74.57
2023-02-27T00:05:57.975Z,74.88
2023-02-27T00:08:47.759Z,74.44
2023-02-27T00:11:39.240Z,74.97
2023-02-27T00:14:30.386Z,74.52
2023-02-27T00:17:20.170Z,76.00
2023-02-27T00:20:13.094Z,74.75
2023-02-27T00:23:02.615Z,75.24
2023-02-27T00:25:52.879Z,76.12
2023-02-27T00:28:44.210Z,75.73
2023-02-27T00:31:36.022Z,75.80
2023-02-27T00:34:26.230Z,75.54
2023-02-27T00:37:19.409Z,74.98
2023-02-27T00:40:11.630Z,75.58
2023-02-27T00:43:01.900Z,76.22
2023-02-27T00:45:53.688Z,76.04
2023-02-27T00:48:45.502Z,76.00
2023-02-27T00:51:35.364Z,76.03
2023-02-27T00:54:25.962Z,75.60
2023-02-27T00:57:15.877Z,76.24
2023-02-27T01:00:07.263Z,76.63
2023-02-27T01:02:58.280Z,76.73
2023-02-27T01:05:47.749Z,76.18
2023-02-27T01:08:37.619Z,76.05
2023-02-27T01:11:28.107Z,76.88
2023-02-27T01:14:22.224Z,76.51
2023-02-27T01:17:12.318Z,76.54
2023-02-27T01:20:03.943Z,76.37
2023-02-27T01:22:53.715Z,76.22
2023-02-27T01:25:43.894Z,76.17
2023-02-27T01:28:33.380Z,76.58
2023-02-27T01:31:23.097Z,76.28
2023-02-27T01:34:12.950Z,76.11
2023-02-27T01:37:07.821Z,76.47
2023-02-27T01:39:57.734Z,76.28
2023-02-27T01:42:47.926Z,76.14
2023-02-27T01:45:39.600Z,76.31
2023-02-27T01:48:31.497Z,76.39
2023-02-27T01:51:22.881Z,76.58
2023-02-27T01:54:18.591Z,76.56
2023-02-27T01:57:09.328Z,76.27
2023-02-27T01:59:59.086Z,75.78
2023-02-27T02:02:52.134Z,76.02
2023-02-27T02:05:42.253Z,75.90
2023-02-27T02:08:34.795Z,76.30
2023-02-27T02:11:27.473Z,75.40
2023-02-27T02:14:17.458Z,76.24
2023-02-27T02:17:16.432Z,76.10
2023-02-27T02:20:37.587Z,74.88
2023-02-27T02:24:05.634Z,75.05
2023-02-27T02:27:19.268Z,75.03
2023-02-27T02:30:44.210Z,75.41
2023-02-27T02:34:23.021Z,76.27
2023-02-27T02:37:43.935Z,75.39
2023-02-27T02:40:39.317Z,76.30
2023-02-27T02:43:33.401Z,76.01
2023-02-27T02:46:30.568Z,76.52
2023-02-27T02:49:25.261Z,76.38
2023-02-27T02:52:17.814Z,77.04
2023-02-27T02:55:10.355Z,76.82
2023-02-27T02:58:05.031Z,76.89
2023-02-27T03:00:58.423Z,77.10
2023-02-27T03:03:51.792Z,76.90
2023-02-27T03:06:45.424Z,76.74
2023-02-27T03:09:39.028Z,77.20
2023-02-27T03:12:30.765Z,77.79
2023-02-27T03:15:24.836Z,76.79
2023-02-27T03:18:20.975Z,76.71
2023-02-27T03:21:13.410Z,77.14
2023-02-27T03:24:07.467Z,76.49
2023-02-27T03:27:03.224Z,76.26
2023-02-27T03:29:58.581Z,77.28
2023-02-27T03:32:57.108Z,76.52
2023-02-27T03:35:50.912Z,76.28
2023-02-27T03:38:45.878Z,76.52
2023-02-27T03:41:38.119Z,76.18
2023-02-27T03:44:52.568Z,76.01
2023-02-27T03:47:42.611Z,76.70
2023-02-27T03:50:34.207Z,76.76
2023-02-27T03:53:28.921Z,76.56
2023-02-27T03:56:22.449Z,76.42
2023-02-27T03:59:12.765Z,76.66
2023-02-27T04:02:07.658Z,77.00
2023-02-27T04:05:00.873Z,76.41
2023-02-27T04:08:25.280Z,76.41
2023-02-27T04:11:26.590Z,76.89
2023-02-27T04:14:42.414Z,76.94
2023-02-27T04:17:33.062Z,77.07
2023-02-27T04:20:39.244Z,76.54
2023-02-27T04:23:36.277Z,77.22
2023-02-27T04:26:30.892Z,76.52
2023-02-27T04:29:23.836Z,77.40
2023-02-27T04:32:16.968Z,77.45
2023-02-27T07:40:35.269Z,73.43
2023-02-27T07:43:26.305Z,74.05
2023-02-27T07:46:16.469Z,72.77
2023-02-27T07:49:08.499Z,72.80
2023-02-27T07:51:58.067Z,72.03
2023-02-27T07:54:47.446Z,72.30
2023-02-27T07:57:38.216Z,72.54
2023-02-27T08:00:27.493Z,71.98
2023-02-27T08:03:17.319Z,72.64
2023-02-27T08:06:07.680Z,71.85
2023-02-27T08:08:57.568Z,71.95
2023-02-27T08:11:48.902Z,70.99
2023-02-27T08:14:40.124Z,71.35
2023-02-27T08:17:33.052Z,71.41
2023-02-27T08:20:24.601Z,71.02
2023-02-27T08:23:14.560Z,71.80
2023-02-27T08:26:04.568Z,72.07
2023-02-27T08:29:00.391Z,70.93
2023-02-27T08:31:51.741Z,70.53
2023-02-27T08:34:41.596Z,69.85
2023-02-27T08:37:37.404Z,70.16
2023-02-27T08:40:27.414Z,70.13
2023-02-27T08:43:18.004Z,70.10
2023-02-27T08:46:08.441Z,69.96
2023-02-27T08:48:59.812Z,68.41
2023-02-27T08:51:49.781Z,69.56
2023-02-27T08:54:39.992Z,69.80
2023-02-27T08:57:29.968Z,68.62
2023-02-27T09:00:21.296Z,68.75
2023-02-27T09:03:11.670Z,68.68
2023-02-27T09:06:03.416Z,67.08
2023-02-27T09:08:53.086Z,67.55
2023-02-27T09:11:42.772Z,65.46
2023-02-27T09:14:32.450Z,65.07
2023-02-27T09:17:22.648Z,63.29
2023-02-27T09:20:13.886Z,62.95
2023-02-27T09:23:05.601Z,62.72
2023-02-27T09:25:55.385Z,61.89
2023-02-27T09:28:45.458Z,61.40
2023-02-27T09:31:35.654Z,61.61
2023-02-27T09:34:26.253Z,61.96
2023-02-27T09:37:16.651Z,62.11
2023-02-27T09:40:09.326Z,62.28
2023-02-27T09:43:01.540Z,62.91
2023-02-27T09:45:54.749Z,61.02
2023-02-27T09:48:47.452Z,60.82
2023-02-27T09:51:37.131Z,60.48
2023-02-27T09:54:33.251Z,60.22
2023-02-27T09:57:33.191Z,59.98
2023-02-27T10:00:37.913Z,60.27
2023-02-27T10:03:40.337Z,58.74
2023-02-27T10:06:33.638Z,59.11
2023-02-27T10:09:31.212Z,59.78
2023-02-27T10:12:50.074Z,60.09
2023-02-27T10:15:41.094Z,60.28
2023-02-27T10:18:32.630Z,58.90
2023-02-27T10:21:24.582Z,59.63
2023-02-27T10:24:22.648Z,59.15
2023-02-27T10:27:17.986Z,59.35
2023-02-27T10:30:29.282Z,59.10
2023-02-27T10:33:28.057Z,59.16
2023-02-27T10:36:32.435Z,58.09
2023-02-27T10:39:24.784Z,57.69
2023-02-27T10:42:15.070Z,58.12
2023-02-27T10:45:15.068Z,58.17
2023-02-27T10:48:06.918Z,57.88
2023-02-27T10:51:24.764Z,57.81
2023-02-27T10:54:32.259Z,57.84
2023-02-27T10:57:27.746Z,57.92
2023-02-27T11:00:28.470Z,58.47
2023-02-27T11:03:23.753Z,58.11
2023-02-27T11:06:15.862Z,56.41
2023-02-27T11:09:22.452Z,57.61
2023-02-27T11:12:14.673Z,58.12
2023-02-27T11:15:23.501Z,57.59
2023-02-27T11:18:27.482Z,57.98
2023-02-27T11:21:23.219Z,58.32
2023-02-27T11:24:21.008Z,58.07
2023-02-27T11:27:22.467Z,56.88
2023-02-27T11:30:25.143Z,56.83
2023-02-27T11:33:21.634Z,56.43
2023-02-27T11:36:13.027Z,58.47
2023-02-27T11:39:05.855Z,56.47
2023-02-27T11:41:57.284Z,57.67
2023-02-27T11:44:53.376Z,56.35
2023-02-27T11:47:44.388Z,57.00
2023-02-27T11:50:43.669Z,56.84
2023-02-27T11:54:04.620Z,57.06
2023-02-27T11:56:56.241Z,55.57
2023-02-27T11:59:50.136Z,54.72
2023-02-27T12:02:47.339Z,55.47
2023-02-27T12:05:41.704Z,55.30
2023-02-27T12:08:35.865Z,56.10
2023-02-27T12:11:30.037Z,58.27
2023-02-27T12:14:24.879Z,55.79
2023-02-27T12:17:22.157Z,54.92
2023-02-27T12:20:27.555Z,55.93
2023-02-27T12:23:21.174Z,54.24
2023-02-27T12:26:15.510Z,53.99
2023-02-27T12:29:13.199Z,56.29
2023-02-27T12:32:05.384Z,55.58
2023-02-27T12:34:56.367Z,54.92
2023-02-27T12:37:49.287Z,53.09
2023-02-27T12:40:48.586Z,53.12
2023-02-27T12:43:43.694Z,53.37
2023-02-27T12:46:43.411Z,52.99
2023-02-27T12:49:40.588Z,53.56
2023-02-27T12:52:37.425Z,53.41
2023-02-27T12:55:28.498Z,53.49
2023-02-27T12:58:30.600Z,54.29
2023-02-27T13:01:32.631Z,55.22
2023-02-27T13:04:27.319Z,54.77
2023-02-27T13:07:24.612Z,54.88
2023-02-27T13:10:19.306Z,55.17
2023-02-27T13:13:16.980Z,54.79
2023-02-27T13:16:09.038Z,52.34
2023-02-27T13:19:02.489Z,55.53
2023-02-27T13:21:57.267Z,53.78
2023-02-27T13:24:49.519Z,52.25
2023-02-27T13:27:40.642Z,52.82
2023-02-27T13:30:34.607Z,53.65
2023-02-27T13:33:51.782Z,54.25
2023-02-27T13:36:43.895Z,54.33
2023-02-27T13:39:56.395Z,54.72
2023-02-27T13:42:55.277Z,55.25
2023-02-27T13:45:57.076Z,54.87
2023-02-27T13:48:52.424Z,53.61
2023-02-27T13:51:51.016Z,54.87
2023-02-27T13:54:59.914Z,54.88
2023-02-27T13:57:53.861Z,55.30
2023-02-27T14:00:42.949Z,53.80
2023-02-27T14:03:32.607Z,54.50
2023-02-27T14:06:22.492Z,54.14
2023-02-27T14:09:15.328Z,54.60
2023-02-27T14:12:09.423Z,54.13
2023-02-27T14:14:59.012Z,53.94
2023-02-27T14:17:52.373Z,54.48
2023-02-27T14:20:52.064Z,55.14
2023-02-27T14:23:41.236Z,55.19
2023-02-27T14:26:30.613Z,53.50
2023-02-27T14:29:24.800Z,53.72
2023-02-27T14:32:20.990Z,54.24
2023-02-27T14:35:13.949Z,54.71
2023-02-27T14:38:09.851Z,53.92
2023-02-27T14:41:19.729Z,53.39
2023-02-27T14:44:20.459Z,52.42
2023-02-27T14:47:16.412Z,53.31
2023-02-27T14:50:07.600Z,52.55
2023-02-27T14:52:57.322Z,52.95
2023-02-27T14:55:55.304Z,53.71
2023-02-27T14:59:03.457Z,52.92
2023-02-27T15:01:54.484Z,52.40
2023-02-27T15:04:46.283Z,52.60
2023-02-27T15:07:36.372Z,52.67
2023-02-27T15:10:30.877Z,52.20
2023-02-27T15:13:26.926Z,53.26
2023-02-27T15:16:37.625Z,52.41
2023-02-27T15:19:28.864Z,52.29
2023-02-27T15:22:37.946Z,51.67
2023-02-27T15:25:30.319Z,52.52
2023-02-27T15:28:23.801Z,51.29
2023-02-27T15:31:19.315Z,52.75
2023-02-27T15:34:13.103Z,53.34
2023-02-27T15:37:02.967Z,51.53
2023-02-27T15:39:54.406Z,52.36
2023-02-27T15:42:44.895Z,53.51
2023-02-27T15:45:35.617Z,52.70
2023-02-27T15:48:25.027Z,52.09
2023-02-27T15:51:14.755Z,52.53
2023-02-27T15:54:06.890Z,53.70
2023-02-27T15:56:57.671Z,53.36
2023-02-27T15:59:47.194Z,53.87
2023-02-27T16:02:41.741Z,55.30
2023-02-27T16:05:36.565Z,53.38
2023-02-27T16:08:26.618Z,53.78
2023-02-27T16:11:20.323Z,55.14
2023-02-27T16:14:42.152Z,55.48
2023-02-27T16:17:33.431Z,55.55
2023-02-27T16:20:55.017Z,54.92
2023-02-27T16:23:44.784Z,55.32
2023-02-27T16:26:37.036Z,55.59
2023-02-27T16:29:33.677Z,55.99
2023-02-27T16:32:27.258Z,54.78
2023-02-27T16:35:19.023Z,55.32
2023-02-27T16:38:08.433Z,57.07
2023-02-27T16:40:57.954Z,56.09
2023-02-27T16:43:48.491Z,55.44
2023-02-27T16:46:39.319Z,55.50
2023-02-27T16:49:33.589Z,55.82
2023-02-27T16:52:23.681Z,55.93
2023-02-27T16:55:14.511Z,56.11
2023-02-27T16:58:07.445Z,56.37
2023-02-27T17:01:01.777Z,55.96
2023-02-27T17:03:51.425Z,56.45
2023-02-27T17:06:43.152Z,56.21
2023-02-27T17:09:32.668Z,56.10
2023-02-27T17:12:25.908Z,56.77
2023-02-27T17:15:16.391Z,56.70
2023-02-27T17:18:20.931Z,57.14
2023-02-27T17:21:50.502Z,57.55
2023-02-27T17:25:05.798Z,57.94
2023-02-27T17:28:05.916Z,58.55
2023-02-27T17:30:55.929Z,60.10
2023-02-27T17:33:46.336Z,60.62
2023-02-27T17:36:36.319Z,60.15
2023-02-27T17:39:25.870Z,60.63
2023-02-27T17:42:31.836Z,60.17
2023-02-27T17:45:21.733Z,61.45
2023-02-27T17:48:17.142Z,60.55
2023-02-27T17:51:07.024Z,61.13
2023-02-27T17:54:11.023Z,62.22
2023-02-27T17:57:20.603Z,62.39
2023-02-27T18:00:16.624Z,61.62
2023-02-27T18:03:07.108Z,62.03
2023-02-27T18:05:56.657Z,60.59
2023-02-27T18:08:46.158Z,60.66
2023-02-27T18:11:37.680Z,60.62
2023-02-27T18:14:26.874Z,60.05
2023-02-27T18:17:17.638Z,59.52
2023-02-27T18:20:08.080Z,59.61
2023-02-27T18:22:57.710Z,58.49
2023-02-27T18:25:55.398Z,59.56
2023-02-27T18:28:45.053Z,58.43
2023-02-27T18:31:36.680Z,59.46
2023-02-27T18:34:31.005Z,58.96
2023-02-27T18:37:21.465Z,58.31
2023-02-27T18:40:15.343Z,57.97
2023-02-27T18:43:05.253Z,58.59
2023-02-27T18:45:55.015Z,58.33
2023-02-27T18:48:46.021Z,58.12
2023-02-27T18:51:36.951Z,58.61
2023-02-27T18:54:29.815Z,58.81
2023-02-27T18:57:19.487Z,59.16
2023-02-27T19:00:10.462Z,58.92
2023-02-27T19:03:00.482Z,58.19
2023-02-27T19:05:52.154Z,58.62
2023-02-27T19:08:43.220Z,58.40
2023-02-27T19:11:35.903Z,58.42
2023-02-27T19:14:25.769Z,58.19
2023-02-27T19:17:15.648Z,57.52
2023-02-27T19:20:07.158Z,57.77
2023-02-27T19:23:00.831Z,58.23
2023-02-27T19:25:59.624Z,59.24
2023-02-27T19:28:52.144Z,58.97
2023-02-27T19:31:42.435Z,58.83
2023-02-27T19:34:32.142Z,57.96
2023-02-27T19:37:22.136Z,57.68
2023-02-27T19:40:12.910Z,58.29
2023-02-27T19:43:03.950Z,58.36
2023-02-27T19:45:53.318Z,58.04
2023-02-27T19:48:44.497Z,58.17
2023-02-27T19:51:34.606Z,58.47
2023-02-27T19:54:24.562Z,58.95
2023-02-27T19:57:15.122Z,59.08
2023-02-27T20:00:07.257Z,58.58
2023-02-27T20:03:02.042Z,57.77
2023-02-27T20:05:52.057Z,58.77
2023-02-27T20:08:42.124Z,58.87
2023-02-27T20:11:32.203Z,58.74
2023-02-27T20:14:21.733Z,58.57
2023-02-27T20:17:12.871Z,58.93
2023-02-27T20:20:02.953Z,59.42
2023-02-27T20:22:53.280Z,59.63
2023-02-27T20:25:49.293Z,59.01
2023-02-27T20:28:39.511Z,60.31
2023-02-27T20:31:32.103Z,60.05
2023-02-27T20:34:26.642Z,60.62
2023-02-27T20:37:16.829Z,60.69
2023-02-27T20:40:08.623Z,60.26
2023-02-27T20:43:01.621Z,60.98
2023-02-27T20:45:51.704Z,61.39
2023-02-27T20:48:42.100Z,60.73
2023-02-27T20:51:36.417Z,60.97
2023-02-27T20:54:26.764Z,61.26
2023-02-27T20:57:16.974Z,61.86
2023-02-27T21:00:12.083Z,61.74
2023-02-27T21:03:01.866Z,61.66
2023-02-27T21:05:54.467Z,62.11
2023-02-27T21:08:46.858Z,61.43
2023-02-27T21:11:36.844Z,62.64
2023-02-27T21:14:27.243Z,62.43
2023-02-27T21:17:17.817Z,62.35
2023-02-27T21:20:08.801Z,62.88
2023-02-27T21:22:58.706Z,62.58
2023-02-27T21:25:49.949Z,62.79
2023-02-27T21:28:47.792Z,62.91
2023-02-27T21:31:38.357Z,62.79
2023-02-27T21:34:28.927Z,62.91
2023-02-27T21:37:20.386Z,63.56
2023-02-27T21:40:11.245Z,63.78
2023-02-27T21:43:05.429Z,62.68
2023-02-27T21:45:56.201Z,63.54
2023-02-27T21:48:46.107Z,64.15
2023-02-27T21:51:40.834Z,63.26
2023-02-27T21:54:32.253Z,63.99
2023-02-27T21:57:37.858Z,64.17
2023-02-27T22:00:31.272Z,63.59
2023-02-27T22:03:21.956Z,63.96
2023-02-27T22:06:14.502Z,63.57
2023-02-27T22:09:17.109Z,64.05
2023-02-27T22:12:07.894Z,64.60
2023-02-27T22:14:57.776Z,64.56
2023-02-27T22:17:50.897Z,64.07
2023-02-27T22:20:47.710Z,64.64
2023-02-27T22:23:39.304Z,65.46
2023-02-27T22:26:31.235Z,65.47
2023-02-27T22:29:20.956Z,65.80
2023-02-27T22:32:18.504Z,66.97
2023-02-27T22:35:10.320Z,67.15
2023-02-27T22:38:00.276Z,66.85
2023-02-27T22:40:50.494Z,67.95
2023-02-27T22:43:41.103Z,67.14
2023-02-27T22:46:31.840Z,67.10
2023-02-27T22:49:23.593Z,67.18
2023-02-27T22:52:15.117Z,67.88
2023-02-27T22:55:06.017Z,67.67
2023-02-27T22:57:57.044Z,67.96
2023-02-27T23:00:47.355Z,68.39
2023-02-27T23:03:37.372Z,68.44
2023-02-27T23:06:29.177Z,68.36
2023-02-27T23:09:22.619Z,68.01
2023-02-27T23:12:12.289Z,68.07
2023-02-27T23:15:04.843Z,68.29
2023-02-27T23:17:58.698Z,68.27
2023-02-27T23:20:49.529Z,67.92
2023-02-27T23:23:39.335Z,68.43
2023-02-27T23:26:30.309Z,67.71
2023-02-27T23:29:19.915Z,67.81
2023-02-27T23:32:09.697Z,68.19
2023-02-27T23:34:59.587Z,68.46
2023-02-27T23:37:50.802Z,69.00
2023-02-27T23:40:40.496Z,68.00
2023-02-27T23:43:52.468Z,68.30
2023-02-27T23:46:42.565Z,67.93
2023-02-27T23:49:35.668Z,68.33
2023-02-27T23:52:25.512Z,68.53
2023-02-27T23:55:15.071Z,68.46
2023-02-27T23:58:06.911Z,68.23
